sensor_id;sensor_type;location;lat;lon;timestamp;P1;durP1;ratioP1;P2;durP2;ratioP2
29092;SDS011;16167;48.768;14.984;2023-04-03T00:00:59;11.95;;;9.32;;
29092;SDS011;16167;48.768;14.984;2023-04-03T00:03:27;12.05;;;8.90;;
29092;SDS011;16167;48.768;14.984;2023-04-03T00:05:56;12.20;;;9.00;;
29092;SDS011;16167;48.768;14.984;2023-04-03T00:08:24;14.68;;;9.90;;
29092;SDS011;16167;48.768;14.984;2023-04-03T00:10:54;12.53;;;9.30;;
29092;SDS011;16167;48.768;14.984;2023-04-03T00:15:51;11.23;;;8.27;;
29092;SDS011;16167;48.768;14.984;2023-04-03T00:18:19;12.30;;;9.25;;
29092;SDS011;16167;48.768;14.984;2023-04-03T00:20:48;11.43;;;9.02;;
29092;SDS011;16167;48.768;14.984;2023-04-03T00:23:17;10.93;;;8.40;;
29092;SDS011;16167;48.768;14.984;2023-04-03T00:25:45;14.13;;;8.55;;
29092;SDS011;16167;48.768;14.984;2023-04-03T00:28:15;10.20;;;8.32;;
29092;SDS011;16167;48.768;14.984;2023-04-03T00:30:43;9.60;;;7.78;;
29092;SDS011;16167;48.768;14.984;2023-04-03T00:33:12;13.82;;;8.90;;
29092;SDS011;16167;48.768;14.984;2023-04-03T00:35:40;13.30;;;9.10;;
29092;SDS011;16167;48.768;14.984;2023-04-03T00:38:09;11.95;;;6.05;;
29092;SDS011;16167;48.768;14.984;2023-04-03T00:40:39;10.82;;;8.05;;
29092;SDS011;16167;48.768;14.984;2023-04-03T00:43:11;9.50;;;8.02;;
29092;SDS011;16167;48.768;14.984;2023-04-03T00:45:43;10.98;;;7.93;;
29092;SDS011;16167;48.768;14.984;2023-04-03T00:48:13;10.48;;;8.48;;
29092;SDS011;16167;48.768;14.984;2023-04-03T00:50:44;10.07;;;8.48;;
29092;SDS011;16167;48.768;14.984;2023-04-03T00:53:14;12.20;;;8.57;;
29092;SDS011;16167;48.768;14.984;2023-04-03T00:55:44;14.60;;;9.63;;
29092;SDS011;16167;48.768;14.984;2023-04-03T00:58:15;14.25;;;9.13;;
29092;SDS011;16167;48.768;14.984;2023-04-03T01:00:50;11.52;;;8.90;;
29092;SDS011;16167;48.768;14.984;2023-04-03T01:03:24;12.23;;;7.88;;
29092;SDS011;16167;48.768;14.984;2023-04-03T01:05:52;11.02;;;8.65;;
29092;SDS011;16167;48.768;14.984;2023-04-03T01:08:21;8.07;;;6.50;;
29092;SDS011;16167;48.768;14.984;2023-04-03T01:10:49;14.35;;;8.93;;
29092;SDS011;16167;48.768;14.984;2023-04-03T01:13:21;14.23;;;9.23;;
29092;SDS011;16167;48.768;14.984;2023-04-03T01:15:53;12.32;;;8.95;;
29092;SDS011;16167;48.768;14.984;2023-04-03T01:18:22;11.25;;;7.82;;
29092;SDS011;16167;48.768;14.984;2023-04-03T01:24:25;11.68;;;8.52;;
29092;SDS011;16167;48.768;14.984;2023-04-03T01:26:59;14.25;;;9.10;;
29092;SDS011;16167;48.768;14.984;2023-04-03T01:29:30;14.50;;;8.48;;
29092;SDS011;16167;48.768;14.984;2023-04-03T01:32:00;10.70;;;7.75;;
29092;SDS011;16167;48.768;14.984;2023-04-03T01:34:29;13.13;;;8.23;;
29092;SDS011;16167;48.768;14.984;2023-04-03T01:36:58;9.43;;;7.40;;
29092;SDS011;16167;48.768;14.984;2023-04-03T01:39:26;12.65;;;8.63;;
29092;SDS011;16167;48.768;14.984;2023-04-03T01:41:54;12.13;;;7.18;;
29092;SDS011;16167;48.768;14.984;2023-04-03T01:44:24;10.98;;;7.50;;
29092;SDS011;16167;48.768;14.984;2023-04-03T01:46:52;8.85;;;7.65;;
29092;SDS011;16167;48.768;14.984;2023-04-03T01:49:21;10.48;;;7.35;;
29092;SDS011;16167;48.768;14.984;2023-04-03T01:51:49;10.57;;;6.78;;
29092;SDS011;16167;48.768;14.984;2023-04-03T01:54:18;12.43;;;7.68;;
29092;SDS011;16167;48.768;14.984;2023-04-03T01:56:46;11.52;;;7.35;;
29092;SDS011;16167;48.768;14.984;2023-04-03T01:59:14;11.35;;;8.25;;
29092;SDS011;16167;48.768;14.984;2023-04-03T02:01:43;11.95;;;8.07;;
29092;SDS011;16167;48.768;14.984;2023-04-03T02:04:12;7.43;;;5.60;;
29092;SDS011;16167;48.768;14.984;2023-04-03T02:06:42;11.52;;;7.10;;
29092;SDS011;16167;48.768;14.984;2023-04-03T02:11:38;9.13;;;7.20;;
29092;SDS011;16167;48.768;14.984;2023-04-03T02:14:06;11.30;;;7.82;;
29092;SDS011;16167;48.768;14.984;2023-04-03T02:16:34;10.73;;;7.20;;
29092;SDS011;16167;48.768;14.984;2023-04-03T02:19:03;12.88;;;7.43;;
29092;SDS011;16167;48.768;14.984;2023-04-03T02:21:31;12.13;;;7.55;;
29092;SDS011;16167;48.768;14.984;2023-04-03T02:24:00;14.00;;;7.95;;
29092;SDS011;16167;48.768;14.984;2023-04-03T02:26:28;12.98;;;7.72;;
29092;SDS011;16167;48.768;14.984;2023-04-03T02:28:57;10.88;;;6.53;;
29092;SDS011;16167;48.768;14.984;2023-04-03T02:31:25;9.88;;;7.63;;
29092;SDS011;16167;48.768;14.984;2023-04-03T02:33:53;12.00;;;8.02;;
29092;SDS011;16167;48.768;14.984;2023-04-03T02:36:21;11.73;;;7.88;;
29092;SDS011;16167;48.768;14.984;2023-04-03T02:38:49;10.68;;;7.45;;
29092;SDS011;16167;48.768;14.984;2023-04-03T02:41:19;10.52;;;7.40;;
29092;SDS011;16167;48.768;14.984;2023-04-03T02:46:15;12.25;;;7.85;;
29092;SDS011;16167;48.768;14.984;2023-04-03T02:48:43;12.35;;;8.10;;
29092;SDS011;16167;48.768;14.984;2023-04-03T02:51:11;10.00;;;7.57;;
29092;SDS011;16167;48.768;14.984;2023-04-03T02:53:39;14.38;;;7.97;;
29092;SDS011;16167;48.768;14.984;2023-04-03T02:56:07;9.95;;;7.78;;
29092;SDS011;16167;48.768;14.984;2023-04-03T02:58:37;13.27;;;8.23;;
29092;SDS011;16167;48.768;14.984;2023-04-03T03:01:05;12.00;;;8.23;;
29092;SDS011;16167;48.768;14.984;2023-04-03T03:03:33;15.35;;;8.48;;
29092;SDS011;16167;48.768;14.984;2023-04-03T03:06:02;11.50;;;7.63;;
29092;SDS011;16167;48.768;14.984;2023-04-03T03:08:31;13.98;;;7.95;;
29092;SDS011;16167;48.768;14.984;2023-04-03T03:10:59;12.85;;;8.00;;
29092;SDS011;16167;48.768;14.984;2023-04-03T03:13:27;10.52;;;7.15;;
29092;SDS011;16167;48.768;14.984;2023-04-03T03:15:57;12.10;;;7.82;;
29092;SDS011;16167;48.768;14.984;2023-04-03T03:18:25;11.32;;;8.27;;
29092;SDS011;16167;48.768;14.984;2023-04-03T03:20:54;12.40;;;7.70;;
29092;SDS011;16167;48.768;14.984;2023-04-03T03:23:24;10.73;;;7.30;;
29092;SDS011;16167;48.768;14.984;2023-04-03T03:25:54;11.43;;;7.20;;
29092;SDS011;16167;48.768;14.984;2023-04-03T03:30:51;12.05;;;7.72;;
29092;SDS011;16167;48.768;14.984;2023-04-03T03:33:21;13.35;;;7.65;;
29092;SDS011;16167;48.768;14.984;2023-04-03T03:35:49;12.52;;;7.57;;
29092;SDS011;16167;48.768;14.984;2023-04-03T03:38:17;10.77;;;7.50;;
29092;SDS011;16167;48.768;14.984;2023-04-03T03:40:46;13.13;;;8.27;;
29092;SDS011;16167;48.768;14.984;2023-04-03T03:43:16;15.70;;;7.72;;
29092;SDS011;16167;48.768;14.984;2023-04-03T03:45:44;10.45;;;7.35;;
29092;SDS011;16167;48.768;14.984;2023-04-03T03:48:16;9.85;;;7.82;;
29092;SDS011;16167;48.768;14.984;2023-04-03T03:50:46;10.35;;;7.43;;
29092;SDS011;16167;48.768;14.984;2023-04-03T03:55:42;11.80;;;7.47;;
29092;SDS011;16167;48.768;14.984;2023-04-03T03:58:10;12.95;;;8.45;;
29092;SDS011;16167;48.768;14.984;2023-04-03T04:00:38;13.40;;;8.48;;
29092;SDS011;16167;48.768;14.984;2023-04-03T04:03:06;12.55;;;7.88;;
29092;SDS011;16167;48.768;14.984;2023-04-03T04:05:34;11.43;;;8.27;;
29092;SDS011;16167;48.768;14.984;2023-04-03T04:08:05;10.68;;;7.63;;
29092;SDS011;16167;48.768;14.984;2023-04-03T04:10:33;13.30;;;7.60;;
29092;SDS011;16167;48.768;14.984;2023-04-03T04:13:01;13.52;;;7.47;;
29092;SDS011;16167;48.768;14.984;2023-04-03T04:15:30;10.82;;;8.05;;
29092;SDS011;16167;48.768;14.984;2023-04-03T04:17:58;9.45;;;7.05;;
29092;SDS011;16167;48.768;14.984;2023-04-03T04:20:26;11.27;;;7.90;;
29092;SDS011;16167;48.768;14.984;2023-04-03T04:22:54;14.13;;;8.82;;
29092;SDS011;16167;48.768;14.984;2023-04-03T04:25:23;13.15;;;9.18;;
29092;SDS011;16167;48.768;14.984;2023-04-03T04:27:51;10.57;;;8.75;;
29092;SDS011;16167;48.768;14.984;2023-04-03T04:30:19;13.40;;;8.05;;
29092;SDS011;16167;48.768;14.984;2023-04-03T04:32:47;13.90;;;9.27;;
29092;SDS011;16167;48.768;14.984;2023-04-03T04:35:16;15.23;;;8.95;;
29092;SDS011;16167;48.768;14.984;2023-04-03T04:37:44;16.90;;;9.93;;
29092;SDS011;16167;48.768;14.984;2023-04-03T04:40:12;11.95;;;8.35;;
29092;SDS011;16167;48.768;14.984;2023-04-03T04:42:42;13.70;;;9.25;;
29092;SDS011;16167;48.768;14.984;2023-04-03T04:45:10;11.80;;;8.55;;
29092;SDS011;16167;48.768;14.984;2023-04-03T04:47:38;10.05;;;8.40;;
29092;SDS011;16167;48.768;14.984;2023-04-03T04:50:06;12.13;;;9.05;;
29092;SDS011;16167;48.768;14.984;2023-04-03T04:52:35;15.40;;;9.05;;
29092;SDS011;16167;48.768;14.984;2023-04-03T04:55:03;15.38;;;9.55;;
29092;SDS011;16167;48.768;14.984;2023-04-03T04:57:32;9.23;;;6.75;;
29092;SDS011;16167;48.768;14.984;2023-04-03T05:00:03;10.45;;;7.53;;
29092;SDS011;16167;48.768;14.984;2023-04-03T05:02:32;14.52;;;8.98;;
29092;SDS011;16167;48.768;14.984;2023-04-03T05:05:00;12.75;;;9.30;;
29092;SDS011;16167;48.768;14.984;2023-04-03T05:07:30;15.88;;;8.73;;
29092;SDS011;16167;48.768;14.984;2023-04-03T05:09:58;13.30;;;8.75;;
29092;SDS011;16167;48.768;14.984;2023-04-03T05:12:26;13.13;;;8.70;;
29092;SDS011;16167;48.768;14.984;2023-04-03T05:14:54;14.05;;;8.52;;
29092;SDS011;16167;48.768;14.984;2023-04-03T05:17:24;12.73;;;8.27;;
29092;SDS011;16167;48.768;14.984;2023-04-03T05:19:52;14.45;;;9.25;;
29092;SDS011;16167;48.768;14.984;2023-04-03T05:22:20;15.10;;;8.48;;
29092;SDS011;16167;48.768;14.984;2023-04-03T05:24:48;15.55;;;9.02;;
29092;SDS011;16167;48.768;14.984;2023-04-03T05:27:16;11.65;;;8.00;;
29092;SDS011;16167;48.768;14.984;2023-04-03T05:29:44;13.90;;;7.95;;
29092;SDS011;16167;48.768;14.984;2023-04-03T05:32:12;10.73;;;7.93;;
29092;SDS011;16167;48.768;14.984;2023-04-03T05:34:42;14.85;;;7.57;;
29092;SDS011;16167;48.768;14.984;2023-04-03T05:37:11;8.90;;;6.85;;
29092;SDS011;16167;48.768;14.984;2023-04-03T05:39:39;8.18;;;5.45;;
29092;SDS011;16167;48.768;14.984;2023-04-03T05:42:07;9.40;;;5.75;;
29092;SDS011;16167;48.768;14.984;2023-04-03T05:44:37;10.18;;;4.65;;
29092;SDS011;16167;48.768;14.984;2023-04-03T05:47:05;10.85;;;4.85;;
29092;SDS011;16167;48.768;14.984;2023-04-03T05:49:34;5.68;;;4.10;;
29092;SDS011;16167;48.768;14.984;2023-04-03T05:52:03;7.60;;;4.70;;
29092;SDS011;16167;48.768;14.984;2023-04-03T05:54:32;5.85;;;3.78;;
29092;SDS011;16167;48.768;14.984;2023-04-03T05:57:01;6.43;;;3.67;;
29092;SDS011;16167;48.768;14.984;2023-04-03T05:59:29;5.32;;;3.40;;
29092;SDS011;16167;48.768;14.984;2023-04-03T06:01:57;11.10;;;5.53;;
29092;SDS011;16167;48.768;14.984;2023-04-03T06:04:25;6.88;;;3.22;;
29092;SDS011;16167;48.768;14.984;2023-04-03T06:06:54;8.55;;;3.45;;
29092;SDS011;16167;48.768;14.984;2023-04-03T06:09:25;6.45;;;3.05;;
29092;SDS011;16167;48.768;14.984;2023-04-03T06:11:55;5.93;;;3.22;;
29092;SDS011;16167;48.768;14.984;2023-04-03T06:14:24;4.97;;;2.95;;
29092;SDS011;16167;48.768;14.984;2023-04-03T06:16:53;3.95;;;2.88;;
29092;SDS011;16167;48.768;14.984;2023-04-03T06:19:22;5.10;;;2.55;;
29092;SDS011;16167;48.768;14.984;2023-04-03T06:21:50;7.95;;;3.10;;
29092;SDS011;16167;48.768;14.984;2023-04-03T06:24:18;7.75;;;3.50;;
29092;SDS011;16167;48.768;14.984;2023-04-03T06:31:45;8.95;;;4.60;;
29092;SDS011;16167;48.768;14.984;2023-04-03T06:34:14;6.57;;;3.28;;
29092;SDS011;16167;48.768;14.984;2023-04-03T06:36:46;6.30;;;2.70;;
29092;SDS011;16167;48.768;14.984;2023-04-03T06:39:16;6.68;;;2.67;;
29092;SDS011;16167;48.768;14.984;2023-04-03T06:41:47;3.15;;;2.60;;
29092;SDS011;16167;48.768;14.984;2023-04-03T06:44:17;8.40;;;3.47;;
29092;SDS011;16167;48.768;14.984;2023-04-03T06:46:45;8.88;;;3.47;;
29092;SDS011;16167;48.768;14.984;2023-04-03T06:49:14;6.05;;;3.03;;
29092;SDS011;16167;48.768;14.984;2023-04-03T06:51:42;8.38;;;3.05;;
29092;SDS011;16167;48.768;14.984;2023-04-03T06:54:12;8.38;;;3.20;;
29092;SDS011;16167;48.768;14.984;2023-04-03T06:56:41;7.57;;;3.55;;
29092;SDS011;16167;48.768;14.984;2023-04-03T06:59:09;6.78;;;3.72;;
29092;SDS011;16167;48.768;14.984;2023-04-03T07:01:40;7.22;;;3.67;;
29092;SDS011;16167;48.768;14.984;2023-04-03T07:06:36;5.53;;;3.33;;
29092;SDS011;16167;48.768;14.984;2023-04-03T07:09:04;6.50;;;3.80;;
29092;SDS011;16167;48.768;14.984;2023-04-03T07:11:33;6.43;;;3.83;;
29092;SDS011;16167;48.768;14.984;2023-04-03T07:14:02;5.50;;;3.28;;
29092;SDS011;16167;48.768;14.984;2023-04-03T07:16:31;6.70;;;3.17;;
29092;SDS011;16167;48.768;14.984;2023-04-03T07:19:01;7.15;;;3.50;;
29092;SDS011;16167;48.768;14.984;2023-04-03T07:21:29;7.70;;;3.92;;
29092;SDS011;16167;48.768;14.984;2023-04-03T07:23:57;7.78;;;4.03;;
29092;SDS011;16167;48.768;14.984;2023-04-03T07:26:25;6.82;;;4.15;;
29092;SDS011;16167;48.768;14.984;2023-04-03T07:28:54;7.57;;;3.80;;
29092;SDS011;16167;48.768;14.984;2023-04-03T07:31:22;9.52;;;4.10;;
29092;SDS011;16167;48.768;14.984;2023-04-03T07:33:51;5.97;;;2.83;;
29092;SDS011;16167;48.768;14.984;2023-04-03T07:36:21;6.60;;;3.70;;
29092;SDS011;16167;48.768;14.984;2023-04-03T07:38:49;5.63;;;3.95;;
29092;SDS011;16167;48.768;14.984;2023-04-03T07:41:18;7.18;;;4.28;;
29092;SDS011;16167;48.768;14.984;2023-04-03T07:43:48;4.50;;;3.53;;
29092;SDS011;16167;48.768;14.984;2023-04-03T07:46:17;7.38;;;3.85;;
29092;SDS011;16167;48.768;14.984;2023-04-03T07:48:45;7.10;;;3.92;;
29092;SDS011;16167;48.768;14.984;2023-04-03T07:51:13;7.20;;;3.90;;
29092;SDS011;16167;48.768;14.984;2023-04-03T07:53:43;6.32;;;3.85;;
29092;SDS011;16167;48.768;14.984;2023-04-03T07:56:12;9.43;;;4.00;;
29092;SDS011;16167;48.768;14.984;2023-04-03T07:58:40;7.75;;;4.50;;
29092;SDS011;16167;48.768;14.984;2023-04-03T08:01:08;9.55;;;5.28;;
29092;SDS011;16167;48.768;14.984;2023-04-03T08:03:36;7.10;;;4.00;;
29092;SDS011;16167;48.768;14.984;2023-04-03T08:06:06;10.23;;;4.78;;
29092;SDS011;16167;48.768;14.984;2023-04-03T08:08:41;7.30;;;4.55;;
29092;SDS011;16167;48.768;14.984;2023-04-03T08:11:11;7.90;;;4.35;;
29092;SDS011;16167;48.768;14.984;2023-04-03T08:13:39;7.07;;;4.13;;
29092;SDS011;16167;48.768;14.984;2023-04-03T08:18:37;7.78;;;3.97;;
29092;SDS011;16167;48.768;14.984;2023-04-03T08:21:06;6.70;;;4.03;;
29092;SDS011;16167;48.768;14.984;2023-04-03T08:23:35;7.75;;;4.22;;
29092;SDS011;16167;48.768;14.984;2023-04-03T08:26:07;7.25;;;4.22;;
29092;SDS011;16167;48.768;14.984;2023-04-03T08:28:39;5.18;;;4.20;;
29092;SDS011;16167;48.768;14.984;2023-04-03T08:31:09;7.22;;;4.65;;
29092;SDS011;16167;48.768;14.984;2023-04-03T08:33:40;10.65;;;5.20;;
29092;SDS011;16167;48.768;14.984;2023-04-03T08:36:15;7.88;;;4.53;;
29092;SDS011;16167;48.768;14.984;2023-04-03T08:38:45;7.65;;;4.65;;
29092;SDS011;16167;48.768;14.984;2023-04-03T08:41:15;7.38;;;4.20;;
29092;SDS011;16167;48.768;14.984;2023-04-03T08:43:55;7.95;;;4.85;;
29092;SDS011;16167;48.768;14.984;2023-04-03T08:46:33;7.65;;;4.45;;
29092;SDS011;16167;48.768;14.984;2023-04-03T08:49:09;6.53;;;4.70;;
29092;SDS011;16167;48.768;14.984;2023-04-03T08:51:44;8.13;;;4.65;;
29092;SDS011;16167;48.768;14.984;2023-04-03T08:54:18;5.47;;;4.20;;
29092;SDS011;16167;48.768;14.984;2023-04-03T08:56:57;7.97;;;4.65;;
29092;SDS011;16167;48.768;14.984;2023-04-03T08:59:32;8.98;;;4.70;;
29092;SDS011;16167;48.768;14.984;2023-04-03T09:02:02;7.82;;;4.75;;
29092;SDS011;16167;48.768;14.984;2023-04-03T09:04:42;7.93;;;4.38;;
29092;SDS011;16167;48.768;14.984;2023-04-03T09:07:12;8.48;;;4.43;;
29092;SDS011;16167;48.768;14.984;2023-04-03T09:09:44;9.57;;;4.85;;
29092;SDS011;16167;48.768;14.984;2023-04-03T09:12:17;6.32;;;4.72;;
29092;SDS011;16167;48.768;14.984;2023-04-03T09:14:52;9.38;;;5.13;;
29092;SDS011;16167;48.768;14.984;2023-04-03T09:17:31;5.97;;;4.80;;
29092;SDS011;16167;48.768;14.984;2023-04-03T09:20:09;9.82;;;4.90;;
29092;SDS011;16167;48.768;14.984;2023-04-03T09:22:46;6.63;;;5.00;;
29092;SDS011;16167;48.768;14.984;2023-04-03T09:25:20;8.05;;;5.00;;
29092;SDS011;16167;48.768;14.984;2023-04-03T09:27:49;11.57;;;7.00;;
29092;SDS011;16167;48.768;14.984;2023-04-03T09:30:20;6.50;;;5.32;;
29092;SDS011;16167;48.768;14.984;2023-04-03T09:32:50;6.95;;;5.13;;
29092;SDS011;16167;48.768;14.984;2023-04-03T09:35:21;12.02;;;7.45;;
29092;SDS011;16167;48.768;14.984;2023-04-03T09:38:17;7.30;;;5.20;;
29092;SDS011;16167;48.768;14.984;2023-04-03T09:40:48;7.80;;;5.10;;
29092;SDS011;16167;48.768;14.984;2023-04-03T09:43:22;6.30;;;5.03;;
29092;SDS011;16167;48.768;14.984;2023-04-03T09:45:56;6.20;;;4.72;;
29092;SDS011;16167;48.768;14.984;2023-04-03T09:48:50;7.50;;;4.55;;
29092;SDS011;16167;48.768;14.984;2023-04-03T09:51:34;7.38;;;5.00;;
29092;SDS011;16167;48.768;14.984;2023-04-03T09:54:04;6.18;;;4.47;;
29092;SDS011;16167;48.768;14.984;2023-04-03T09:56:53;7.18;;;4.75;;
29092;SDS011;16167;48.768;14.984;2023-04-03T09:59:31;7.25;;;4.85;;
29092;SDS011;16167;48.768;14.984;2023-04-03T10:02:02;5.45;;;4.45;;
29092;SDS011;16167;48.768;14.984;2023-04-03T10:04:44;10.13;;;4.70;;
29092;SDS011;16167;48.768;14.984;2023-04-03T10:07:29;7.63;;;4.82;;
29092;SDS011;16167;48.768;14.984;2023-04-03T10:10:00;5.70;;;3.78;;
29092;SDS011;16167;48.768;14.984;2023-04-03T10:12:42;7.22;;;4.00;;
29092;SDS011;16167;48.768;14.984;2023-04-03T10:15:11;6.18;;;3.80;;
29092;SDS011;16167;48.768;14.984;2023-04-03T10:17:46;5.97;;;3.70;;
29092;SDS011;16167;48.768;14.984;2023-04-03T10:20:24;6.40;;;3.60;;
29092;SDS011;16167;48.768;14.984;2023-04-03T10:23:00;5.93;;;4.47;;
29092;SDS011;16167;48.768;14.984;2023-04-03T10:25:40;4.70;;;3.20;;
29092;SDS011;16167;48.768;14.984;2023-04-03T10:28:15;5.93;;;4.07;;
29092;SDS011;16167;48.768;14.984;2023-04-03T10:30:50;5.97;;;4.05;;
29092;SDS011;16167;48.768;14.984;2023-04-03T10:33:32;6.72;;;3.75;;
29092;SDS011;16167;48.768;14.984;2023-04-03T10:36:14;5.90;;;4.28;;
29092;SDS011;16167;48.768;14.984;2023-04-03T10:38:51;6.25;;;3.83;;
29092;SDS011;16167;48.768;14.984;2023-04-03T10:41:29;8.52;;;4.55;;
29092;SDS011;16167;48.768;14.984;2023-04-03T10:44:09;8.80;;;5.03;;
29092;SDS011;16167;48.768;14.984;2023-04-03T10:46:43;5.97;;;4.60;;
29092;SDS011;16167;48.768;14.984;2023-04-03T10:49:22;8.98;;;4.57;;
29092;SDS011;16167;48.768;14.984;2023-04-03T10:52:06;5.28;;;4.10;;
29092;SDS011;16167;48.768;14.984;2023-04-03T10:54:38;6.85;;;4.57;;
29092;SDS011;16167;48.768;14.984;2023-04-03T10:57:10;5.60;;;4.00;;
29092;SDS011;16167;48.768;14.984;2023-04-03T10:59:41;6.30;;;3.40;;
29092;SDS011;16167;48.768;14.984;2023-04-03T11:02:14;10.10;;;4.20;;
29092;SDS011;16167;48.768;14.984;2023-04-03T11:04:49;4.72;;;3.40;;
29092;SDS011;16167;48.768;14.984;2023-04-03T11:07:23;5.57;;;3.60;;
29092;SDS011;16167;48.768;14.984;2023-04-03T11:09:55;6.35;;;3.88;;
29092;SDS011;16167;48.768;14.984;2023-04-03T11:12:28;6.82;;;4.18;;
29092;SDS011;16167;48.768;14.984;2023-04-03T11:15:06;3.85;;;3.22;;
29092;SDS011;16167;48.768;14.984;2023-04-03T11:17:41;4.32;;;3.20;;
29092;SDS011;16167;48.768;14.984;2023-04-03T11:20:16;5.65;;;3.10;;
29092;SDS011;16167;48.768;14.984;2023-04-03T11:22:48;5.43;;;3.65;;
29092;SDS011;16167;48.768;14.984;2023-04-03T11:25:21;5.07;;;3.22;;
29092;SDS011;16167;48.768;14.984;2023-04-03T11:27:54;5.13;;;3.17;;
29092;SDS011;16167;48.768;14.984;2023-04-03T11:30:25;4.57;;;3.30;;
29092;SDS011;16167;48.768;14.984;2023-04-03T11:35:55;6.40;;;3.58;;
29092;SDS011;16167;48.768;14.984;2023-04-03T11:38:35;5.30;;;3.42;;
29092;SDS011;16167;48.768;14.984;2023-04-03T11:41:07;7.43;;;4.05;;
29092;SDS011;16167;48.768;14.984;2023-04-03T11:43:39;5.47;;;3.75;;
29092;SDS011;16167;48.768;14.984;2023-04-03T11:46:08;4.00;;;2.92;;
29092;SDS011;16167;48.768;14.984;2023-04-03T11:48:50;6.83;;;3.53;;
29092;SDS011;16167;48.768;14.984;2023-04-03T11:51:40;3.83;;;3.38;;
29092;SDS011;16167;48.768;14.984;2023-04-03T11:57:22;4.70;;;3.67;;
29092;SDS011;16167;48.768;14.984;2023-04-03T12:12:57;4.72;;;3.40;;
29092;SDS011;16167;48.768;14.984;2023-04-03T12:21:23;5.78;;;3.83;;
29092;SDS011;16167;48.768;14.984;2023-04-03T12:24:25;8.10;;;4.05;;
29092;SDS011;16167;48.768;14.984;2023-04-03T12:29:55;5.65;;;3.15;;
29092;SDS011;16167;48.768;14.984;2023-04-03T12:35:39;4.63;;;2.80;;
29092;SDS011;16167;48.768;14.984;2023-04-03T12:38:17;3.83;;;2.70;;
29092;SDS011;16167;48.768;14.984;2023-04-03T12:41:04;3.55;;;2.40;;
29092;SDS011;16167;48.768;14.984;2023-04-03T12:43:56;3.65;;;2.80;;
29092;SDS011;16167;48.768;14.984;2023-04-03T12:46:35;3.55;;;2.50;;
29092;SDS011;16167;48.768;14.984;2023-04-03T12:49:12;4.28;;;2.80;;
29092;SDS011;16167;48.768;14.984;2023-04-03T12:51:50;4.55;;;2.30;;
29092;SDS011;16167;48.768;14.984;2023-04-03T12:54:30;5.78;;;2.33;;
29092;SDS011;16167;48.768;14.984;2023-04-03T12:57:10;4.22;;;2.40;;
29092;SDS011;16167;48.768;14.984;2023-04-03T12:59:40;3.63;;;2.80;;
29092;SDS011;16167;48.768;14.984;2023-04-03T13:02:23;6.38;;;3.03;;
29092;SDS011;16167;48.768;14.984;2023-04-03T13:04:53;6.05;;;3.15;;
29092;SDS011;16167;48.768;14.984;2023-04-03T13:07:25;4.63;;;2.78;;
29092;SDS011;16167;48.768;14.984;2023-04-03T13:09:58;4.25;;;2.78;;
29092;SDS011;16167;48.768;14.984;2023-04-03T13:12:29;4.57;;;2.75;;
29092;SDS011;16167;48.768;14.984;2023-04-03T13:15:00;3.63;;;2.80;;
29092;SDS011;16167;48.768;14.984;2023-04-03T13:17:30;4.85;;;2.90;;
29092;SDS011;16167;48.768;14.984;2023-04-03T13:20:09;6.55;;;3.47;;
29092;SDS011;16167;48.768;14.984;2023-04-03T13:22:39;4.05;;;2.45;;
29092;SDS011;16167;48.768;14.984;2023-04-03T13:25:15;4.05;;;2.60;;
29092;SDS011;16167;48.768;14.984;2023-04-03T13:27:45;4.53;;;2.80;;
29092;SDS011;16167;48.768;14.984;2023-04-03T13:30:23;3.53;;;2.55;;
29092;SDS011;16167;48.768;14.984;2023-04-03T13:32:54;4.90;;;3.03;;
29092;SDS011;16167;48.768;14.984;2023-04-03T13:35:31;3.70;;;2.53;;
29092;SDS011;16167;48.768;14.984;2023-04-03T13:38:06;7.07;;;2.80;;
29092;SDS011;16167;48.768;14.984;2023-04-03T13:40:50;4.97;;;2.53;;
29092;SDS011;16167;48.768;14.984;2023-04-03T13:43:20;3.63;;;2.83;;
29092;SDS011;16167;48.768;14.984;2023-04-03T13:45:57;6.75;;;3.20;;
29092;SDS011;16167;48.768;14.984;2023-04-03T13:48:35;3.70;;;2.50;;
29092;SDS011;16167;48.768;14.984;2023-04-03T13:51:05;3.88;;;2.90;;
29092;SDS011;16167;48.768;14.984;2023-04-03T13:53:45;4.43;;;2.55;;
29092;SDS011;16167;48.768;14.984;2023-04-03T13:56:18;5.30;;;2.90;;
29092;SDS011;16167;48.768;14.984;2023-04-03T13:58:54;5.03;;;2.75;;
29092;SDS011;16167;48.768;14.984;2023-04-03T14:01:34;4.47;;;2.65;;
29092;SDS011;16167;48.768;14.984;2023-04-03T14:04:14;7.90;;;3.88;;
29092;SDS011;16167;48.768;14.984;2023-04-03T14:06:44;3.78;;;2.88;;
29092;SDS011;16167;48.768;14.984;2023-04-03T14:09:13;7.63;;;3.38;;
29092;SDS011;16167;48.768;14.984;2023-04-03T14:11:43;6.93;;;2.78;;
29092;SDS011;16167;48.768;14.984;2023-04-03T14:14:13;4.70;;;3.17;;
29092;SDS011;16167;48.768;14.984;2023-04-03T14:16:45;5.80;;;3.30;;
29092;SDS011;16167;48.768;14.984;2023-04-03T14:19:17;4.28;;;2.85;;
29092;SDS011;16167;48.768;14.984;2023-04-03T14:21:47;4.65;;;2.83;;
29092;SDS011;16167;48.768;14.984;2023-04-03T14:24:17;4.35;;;2.40;;
29092;SDS011;16167;48.768;14.984;2023-04-03T14:26:46;4.97;;;2.45;;
29092;SDS011;16167;48.768;14.984;2023-04-03T14:29:14;3.72;;;2.33;;
29092;SDS011;16167;48.768;14.984;2023-04-03T14:31:45;5.80;;;3.20;;
29092;SDS011;16167;48.768;14.984;2023-04-03T14:34:23;5.43;;;3.00;;
29092;SDS011;16167;48.768;14.984;2023-04-03T14:36:51;5.53;;;2.60;;
29092;SDS011;16167;48.768;14.984;2023-04-03T14:39:20;5.93;;;2.63;;
29092;SDS011;16167;48.768;14.984;2023-04-03T14:41:48;6.75;;;3.10;;
29092;SDS011;16167;48.768;14.984;2023-04-03T14:44:16;5.70;;;2.80;;
29092;SDS011;16167;48.768;14.984;2023-04-03T14:46:45;6.90;;;2.40;;
29092;SDS011;16167;48.768;14.984;2023-04-03T14:49:23;7.68;;;2.75;;
29092;SDS011;16167;48.768;14.984;2023-04-03T14:51:55;5.53;;;2.63;;
29092;SDS011;16167;48.768;14.984;2023-04-03T14:54:24;4.20;;;2.72;;
29092;SDS011;16167;48.768;14.984;2023-04-03T14:56:54;5.07;;;2.90;;
29092;SDS011;16167;48.768;14.984;2023-04-03T14:59:25;3.30;;;2.70;;
29092;SDS011;16167;48.768;14.984;2023-04-03T15:01:55;4.13;;;2.78;;
29092;SDS011;16167;48.768;14.984;2023-04-03T15:04:23;6.68;;;3.30;;
29092;SDS011;16167;48.768;14.984;2023-04-03T15:06:52;3.07;;;1.70;;
29092;SDS011;16167;48.768;14.984;2023-04-03T15:09:22;7.55;;;3.40;;
29092;SDS011;16167;48.768;14.984;2023-04-03T15:11:52;6.15;;;2.72;;
29092;SDS011;16167;48.768;14.984;2023-04-03T15:14:21;5.80;;;2.70;;
29092;SDS011;16167;48.768;14.984;2023-04-03T15:17:03;7.38;;;3.55;;
29092;SDS011;16167;48.768;14.984;2023-04-03T15:19:32;5.57;;;2.80;;
29092;SDS011;16167;48.768;14.984;2023-04-03T15:22:05;5.22;;;3.00;;
29092;SDS011;16167;48.768;14.984;2023-04-03T15:24:33;4.27;;;2.63;;
29092;SDS011;16167;48.768;14.984;2023-04-03T15:27:04;6.50;;;3.90;;
29092;SDS011;16167;48.768;14.984;2023-04-03T15:29:32;5.63;;;3.17;;
29092;SDS011;16167;48.768;14.984;2023-04-03T15:32:01;6.90;;;3.07;;
29092;SDS011;16167;48.768;14.984;2023-04-03T15:34:31;6.00;;;3.70;;
29092;SDS011;16167;48.768;14.984;2023-04-03T15:37:00;4.40;;;3.38;;
29092;SDS011;16167;48.768;14.984;2023-04-03T15:39:28;4.93;;;3.55;;
29092;SDS011;16167;48.768;14.984;2023-04-03T15:41:56;5.57;;;2.80;;
29092;SDS011;16167;48.768;14.984;2023-04-03T15:44:32;7.57;;;3.42;;
29092;SDS011;16167;48.768;14.984;2023-04-03T15:47:01;5.38;;;2.90;;
29092;SDS011;16167;48.768;14.984;2023-04-03T15:49:31;5.85;;;3.60;;
29092;SDS011;16167;48.768;14.984;2023-04-03T15:52:01;6.38;;;3.20;;